Time;durP1;ratioP1;P1;durP2;ratioP2;P2;SDS_P1;SDS_P2;PMS_P1;PMS_P2;Temp;Humidity;BMP_temperature;BMP_pressure;BME280_temperature;BME280_humidity;BME280_pressure;Samples;Min_cycle;Max_cycle;Signal;HPM_P1;HPM_P2
2019/04/20 00:00:57;;;;;;;3.5;3.2;;;;;;;12.91;41.86621;969.9123;;;;
2019/04/20 00:03:00;;;;;;;3.4;3.1;;;;;;;12.9;41.84082;969.8744;;;;
2019/04/20 00:05:25;;;;;;;3.5;3.2;;;;;;;12.85;43.00488;969.8862;;;;
2019/04/20 00:07:50;;;;;;;4.9;3.1;;;;;;;12.86;42.54199;969.8689;;;;
2019/04/20 00:10:25;;;;;;;5.2;3.7;;;;;;;12.79;43.38086;969.8615;;;;
2019/04/20 00:12:50;;;;;;;3.8;3.3;;;;;;;12.75;43.65332;969.8949;;;;
2019/04/20 00:15:15;;;;;;;6;3.5;;;;;;;12.71;44.21582;969.8329;;;;
2019/04/20 00:17:40;;;;;;;4.2;3.7;;;;;;;12.64;43.33203;969.8641;;;;
2019/04/20 00:20:05;;;;;;;4.2;3.6;;;;;;;12.62;43.51367;969.8575;;;;
2019/04/20 00:22:43;;;;;;;4.3;3.5;;;;;;;12.56;43.75098;969.8445;;;;
2019/04/20 00:27:24;;;;;;;5.1;3.8;;;;;;;12.58;43.625;969.7911;;;;
2019/04/20 00:29:52;;;;;;;4.8;3.7;;;;;;;12.53;46.12891;969.7904;;;;
2019/04/20 00:32:17;;;;;;;5.3;4;;;;;;;12.51;44.98242;969.7834;;;;
2019/04/20 00:34:42;;;;;;;4.8;4.1;;;;;;;12.53;45.32129;969.7508;;;;
2019/04/20 00:37:09;;;;;;;5.5;3.8;;;;;;;12.52;44.31348;969.7994;;;;
2019/04/20 00:39:35;;;;;;;5.9;4;;;;;;;12.53;45.50586;969.6984;;;;
2019/04/20 00:42:00;;;;;;;4.7;3.9;;;;;;;12.49;46.26367;969.7109;;;;
2019/04/20 00:44:25;;;;;;;4.3;3.8;;;;;;;12.46;46.28418;969.6472;;;;
2019/04/20 00:46:50;;;;;;;4.9;4.1;;;;;;;12.45;46.46777;969.6878;;;;
2019/04/20 00:49:19;;;;;;;5.4;3.9;;;;;;;12.42;45.35449;969.6207;;;;
2019/04/20 00:51:44;;;;;;;5.9;4.3;;;;;;;12.34;45.76172;969.6526;;;;
2019/04/20 00:54:10;;;;;;;5.3;4;;;;;;;12.38;46.41406;969.6669;;;;
2019/04/20 00:56:35;;;;;;;4.9;4.1;;;;;;;12.35;45.44043;969.6644;;;;
2019/04/20 00:59:02;;;;;;;4.7;4;;;;;;;12.29;46.54297;969.6389;;;;
2019/04/20 01:01:27;;;;;;;5;4.2;;;;;;;12.27;46.20605;969.632;;;;
2019/04/20 01:03:55;;;;;;;5.4;4.2;;;;;;;12.16;46.63281;969.6492;;;;
2019/04/20 01:06:29;;;;;;;4.8;4.3;;;;;;;12.07;46.26465;969.5909;;;;
2019/04/20 01:11:12;;;;;;;6.7;4.3;;;;;;;12.1;47.79297;969.6147;;;;
2019/04/20 01:13:37;;;;;;;6.9;4.2;;;;;;;12;47.33203;969.6046;;;;
2019/04/20 01:16:02;;;;;;;5.2;4.3;;;;;;;11.9;47.71387;969.5817;;;;
2019/04/20 01:18:27;;;;;;;4.7;3.9;;;;;;;11.87;48.50684;969.6406;;;;
2019/04/20 01:20:52;;;;;;;6;4.4;;;;;;;11.76;48.40234;969.6355;;;;
2019/04/20 01:23:17;;;;;;;5.8;3.9;;;;;;;11.86;47.80176;969.7286;;;;
2019/04/20 01:25:42;;;;;;;6;4.3;;;;;;;11.85;48.13477;969.6817;;;;
2019/04/20 01:28:07;;;;;;;5.5;4.2;;;;;;;11.81;48.4082;969.693;;;;
2019/04/20 01:30:35;;;;;;;6.1;4.5;;;;;;;11.7;49.81543;969.6752;;;;
2019/04/20 01:33:00;;;;;;;5.3;4.3;;;;;;;11.72;47.9707;969.7606;;;;
2019/04/20 01:35:25;;;;;;;5.1;4.6;;;;;;;11.75;48.28613;969.6578;;;;
2019/04/20 01:37:50;;;;;;;5.3;4.7;;;;;;;11.75;48.44727;969.6887;;;;
2019/04/20 01:40:28;;;;;;;4.9;4.3;;;;;;;11.77;47.31836;969.6699;;;;
2019/04/20 01:42:53;;;;;;;6;4.5;;;;;;;11.72;48.75586;969.7255;;;;
2019/04/20 01:45:19;;;;;;;5.3;4.4;;;;;;;11.75;48.49316;969.7238;;;;
2019/04/20 01:47:45;;;;;;;5.7;4.6;;;;;;;11.69;46.6748;969.6975;;;;
2019/04/20 01:50:10;;;;;;;4.8;4.3;;;;;;;11.69;48.44043;969.7106;;;;
2019/04/20 01:52:38;;;;;;;6.7;4.8;;;;;;;11.72;49.77148;969.7255;;;;
2019/04/20 01:55:05;;;;;;;5.3;4.8;;;;;;;11.7;48.34863;969.6711;;;;
2019/04/20 01:57:32;;;;;;;7.1;4.7;;;;;;;11.64;48.16895;969.6887;;;;
2019/04/20 02:00:12;;;;;;;4.4;4;;;;;;;11.82;46.72266;969.6796;;;;
2019/04/20 02:03:19;;;;;;;5.2;4.5;;;;;;;11.86;46.65918;969.7416;;;;
2019/04/20 02:04:48;;;;;;;6.2;4.5;;;;;;;11.82;47.21973;969.6878;;;;
2019/04/20 02:07:09;;;;;;;6.2;5;;;;;;;11.74;48.50391;969.7025;;;;
2019/04/20 02:09:34;;;;;;;5.9;4.9;;;;;;;11.76;46.44043;969.7751;;;;
2019/04/20 02:11:59;;;;;;;5.9;4.8;;;;;;;11.81;47.21777;969.7542;;;;
2019/04/20 02:14:24;;;;;;;7.7;4.5;;;;;;;11.76;46.85547;969.736;;;;
2019/04/20 02:16:49;;;;;;;5.4;4.8;;;;;;;11.8;47.14844;969.7371;;;;
2019/04/20 02:19:25;;;;;;;7.5;5.7;;;;;;;11.81;48.71973;969.7453;;;;
2019/04/20 02:21:50;;;;;;;5.5;4.9;;;;;;;11.78;47.15723;969.7477;;;;
2019/04/20 02:24:15;;;;;;;7.3;5.3;;;;;;;11.71;47.43848;969.7268;;;;
2019/04/20 02:26:40;;;;;;;7.2;5.5;;;;;;;11.63;48.7334;969.7633;;;;
2019/04/20 02:29:05;;;;;;;6;4.9;;;;;;;11.62;47.74121;969.7853;;;;
2019/04/20 02:31:30;;;;;;;6.2;5.3;;;;;;;11.66;47.79102;969.7342;;;;
2019/04/20 02:34:03;;;;;;;5.8;5.1;;;;;;;11.62;48.09863;969.7462;;;;
2019/04/20 02:36:23;;;;;;;6.1;5;;;;;;;11.61;47.09375;969.6904;;;;
2019/04/20 02:38:50;;;;;;;9.5;5.2;;;;;;;11.56;47.60742;969.7989;;;;
2019/04/20 02:41:12;;;;;;;7.2;5.7;;;;;;;11.49;49.09863;969.7911;;;;
2019/04/20 02:43:37;;;;;;;7.5;6;;;;;;;11.46;48.48438;969.8195;;;;
2019/04/20 02:46:02;;;;;;;6.9;5.9;;;;;;;11.48;48.58887;969.8616;;;;
2019/04/20 02:48:33;;;;;;;9.3;5.7;;;;;;;11.49;47.99121;969.8261;;;;
2019/04/20 02:51:06;;;;;;;6.4;5.8;;;;;;;11.41;48.45508;969.7581;;;;
2019/04/20 02:53:31;;;;;;;7.3;5.7;;;;;;;11.3;48.52246;969.827;;;;
2019/04/20 02:56:13;;;;;;;6.8;5.5;;;;;;;11.27;49.1084;969.8417;;;;
2019/04/20 02:58:50;;;;;;;6.7;5.9;;;;;;;11.16;49.55664;969.8284;;;;
2019/04/20 03:01:25;;;;;;;6.9;5.8;;;;;;;11.07;50.31836;969.8046;;;;
2019/04/20 03:04:02;;;;;;;5.8;5.2;;;;;;;11.04;49.15039;969.7722;;;;
2019/04/20 03:06:27;;;;;;;6.1;5.5;;;;;;;11.04;50.07227;969.7155;;;;
2019/04/20 03:08:53;;;;;;;6.6;5.7;;;;;;;10.99;49.7793;969.7541;;;;
2019/04/20 03:11:18;;;;;;;6.6;5.6;;;;;;;10.92;49.93164;969.8113;;;;
2019/04/20 03:13:43;;;;;;;7;5.6;;;;;;;10.95;50.9043;969.7654;;;;
2019/04/20 03:16:08;;;;;;;7.3;5.4;;;;;;;10.91;50.7041;969.7897;;;;
2019/04/20 03:18:33;;;;;;;6.8;5.6;;;;;;;10.85;51.59375;969.7508;;;;
2019/04/20 03:21:01;;;;;;;6.9;5.8;;;;;;;10.86;51.00879;969.7849;;;;
2019/04/20 03:23:26;;;;;;;5.9;5.3;;;;;;;10.85;51.89355;969.7467;;;;
2019/04/20 03:25:55;;;;;;;6.4;5.5;;;;;;;10.86;51.21582;969.798;;;;
2019/04/20 03:30:46;;;;;;;7.1;5.8;;;;;;;10.85;51.07617;969.7461;;;;
2019/04/20 03:33:06;;;;;;;8.3;6;;;;;;;10.83;51.05176;969.8042;;;;
2019/04/20 03:35:32;;;;;;;7.6;6.4;;;;;;;10.82;51.16406;969.7833;;;;
2019/04/20 03:37:57;;;;;;;7;6.3;;;;;;;10.8;52.00293;969.7413;;;;
2019/04/20 03:40:22;;;;;;;8.2;6.5;;;;;;;10.76;52.14844;969.7397;;;;
2019/04/20 03:42:47;;;;;;;7.4;6.3;;;;;;;10.74;51.13184;969.7759;;;;
2019/04/20 03:45:12;;;;;;;7.8;6.8;;;;;;;10.74;53.0791;969.7622;;;;
2019/04/20 03:47:37;;;;;;;10.6;6.4;;;;;;;10.62;51.35938;969.7758;;;;
2019/04/20 03:50:02;;;;;;;8.6;6.8;;;;;;;10.63;52.47852;969.8184;;;;
2019/04/20 03:52:36;;;;;;;8.6;6.4;;;;;;;10.67;50.39844;969.7813;;;;
2019/04/20 03:57:26;;;;;;;8.1;6.3;;;;;;;10.7;50.94238;969.8312;;;;
2019/04/20 04:02:36;;;;;;;7.8;6.6;;;;;;;10.54;51.76367;969.8167;;;;
2019/04/20 04:05:06;;;;;;;7;6;;;;;;;10.49;51.66602;969.8458;;;;
2019/04/20 04:07:19;;;;;;;7.5;5.9;;;;;;;10.45;50.74121;969.8403;;;;
2019/04/20 04:09:44;;;;;;;7.3;6.1;;;;;;;10.43;51.08398;969.8329;;;;
2019/04/20 04:12:09;;;;;;;7.6;5.7;;;;;;;10.33;51.56641;969.7838;;;;
2019/04/20 04:14:34;;;;;;;7.7;6.1;;;;;;;10.31;51.4248;969.7894;;;;
2019/04/20 04:16:59;;;;;;;7.4;6;;;;;;;10.28;52.2959;969.8348;;;;
2019/04/20 04:19:25;;;;;;;7.3;5.8;;;;;;;10.26;52.52539;969.8011;;;;
2019/04/20 04:21:50;;;;;;;7;6.1;;;;;;;10.11;53.65625;969.8635;;;;
2019/04/20 04:24:15;;;;;;;7;5.2;;;;;;;10.09;53.25195;969.9302;;;;
2019/04/20 04:26:40;;;;;;;7.8;5.8;;;;;;;10.03;52.2793;969.9208;;;;
2019/04/20 04:29:05;;;;;;;7.8;5.7;;;;;;;10.08;53.27246;969.8831;;;;
2019/04/20 04:31:31;;;;;;;7.9;5.6;;;;;;;10.02;53.65527;969.8956;;;;
2019/04/20 04:33:56;;;;;;;8;6;;;;;;;10;53.61914;969.9406;;;;
2019/04/20 04:36:25;;;;;;;7.4;6;;;;;;;9.95;53.24512;969.8353;;;;
2019/04/20 04:38:50;;;;;;;7;5.8;;;;;;;9.82;53.66602;969.8875;;;;
2019/04/20 04:41:16;;;;;;;7.1;5.9;;;;;;;9.89;54.01855;969.9088;;;;
2019/04/20 04:43:41;;;;;;;6.7;6;;;;;;;9.85;54.08301;969.9244;;;;
2019/04/20 04:46:06;;;;;;;9;6.3;;;;;;;9.91;54.19336;969.9551;;;;
2019/04/20 04:48:31;;;;;;;7.6;6.2;;;;;;;9.91;54.22852;969.9469;;;;
2019/04/20 04:50:56;;;;;;;7.5;6.7;;;;;;;9.93;54.32324;969.9886;;;;
2019/04/20 04:53:21;;;;;;;8.8;7.9;;;;;;;9.89;54.35254;969.9306;;;;
2019/04/20 04:55:46;;;;;;;9.7;7.3;;;;;;;9.89;54.36328;969.9656;;;;
2019/04/20 04:58:11;;;;;;;8.2;6.8;;;;;;;9.87;54.86719;969.9363;;;;
2019/04/20 05:00:37;;;;;;;8.2;6.3;;;;;;;9.84;53.23145;970.0165;;;;
2019/04/20 05:03:06;;;;;;;8;6.1;;;;;;;9.86;53.92383;969.9931;;;;
2019/04/20 05:05:42;;;;;;;7.2;6.3;;;;;;;9.87;53.12012;969.9709;;;;
2019/04/20 05:07:59;;;;;;;7.2;6.1;;;;;;;9.89;54.54883;970.0952;;;;
2019/04/20 05:10:24;;;;;;;8;6.2;;;;;;;9.9;53.80273;970.0861;;;;
2019/04/20 05:12:50;;;;;;;6.9;5.6;;;;;;;9.97;53.83398;970.0991;;;;
2019/04/20 05:15:19;;;;;;;6.4;5.4;;;;;;;9.98;53.08887;970.1328;;;;
2019/04/20 05:17:55;;;;;;;7;5.5;;;;;;;10.01;53.28711;970.2048;;;;
2019/04/20 05:20:22;;;;;;;7.1;5.5;;;;;;;10.04;54.48633;970.2115;;;;
2019/04/20 05:29:36;;;;;;;6.6;5.7;;;;;;;10.01;54.23047;970.2089;;;;
2019/04/20 05:32:01;;;;;;;8.4;6.2;;;;;;;9.99;54.30762;970.1887;;;;
2019/04/20 05:34:26;;;;;;;7.7;6.2;;;;;;;10.03;54.60059;970.1902;;;;
2019/04/20 05:36:51;;;;;;;8.7;6.6;;;;;;;10.07;52.53516;970.1656;;;;
2019/04/20 05:39:18;;;;;;;8;6.2;;;;;;;10.16;51.5;970.1379;;;;
2019/04/20 05:41:43;;;;;;;10.8;6.5;;;;;;;10.23;51.16504;970.1678;;;;
2019/04/20 05:44:15;;;;;;;7.7;6.2;;;;;;;10.24;50.98145;970.0891;;;;
2019/04/20 05:46:33;;;;;;;9;6.3;;;;;;;10.22;51.17383;970.1385;;;;
2019/04/20 05:48:58;;;;;;;7.7;6.3;;;;;;;10.32;51.11621;970.149;;;;
2019/04/20 05:51:23;;;;;;;9.4;6.4;;;;;;;10.38;51.90625;970.1664;;;;
2019/04/20 05:53:49;;;;;;;7.8;6.3;;;;;;;10.38;53.01074;970.1492;;;;
2019/04/20 05:56:14;;;;;;;8.2;6.3;;;;;;;10.47;51.47852;970.2083;;;;
2019/04/20 05:58:39;;;;;;;7;6.3;;;;;;;10.58;50.42188;970.2312;;;;
2019/04/20 06:01:05;;;;;;;7.7;6.9;;;;;;;10.66;50.55859;970.2342;;;;
2019/04/20 06:03:30;;;;;;;9.6;6.8;;;;;;;10.59;50.07813;970.2563;;;;
2019/04/20 06:05:55;;;;;;;7.7;6.9;;;;;;;10.65;50.05078;970.2609;;;;
2019/04/20 06:08:24;;;;;;;8.7;6.7;;;;;;;10.67;50.27148;970.2899;;;;
2019/04/20 06:10:49;;;;;;;9.7;7.7;;;;;;;10.68;49.76758;970.324;;;;
2019/04/20 06:13:19;;;;;;;9.7;7.3;;;;;;;10.71;49.27539;970.2696;;;;
2019/04/20 06:15:44;;;;;;;8.3;7.1;;;;;;;10.77;49.73047;970.2783;;;;
2019/04/20 06:18:10;;;;;;;9;7.3;;;;;;;10.91;50.72559;970.3033;;;;
2019/04/20 06:20:30;;;;;;;8;6.7;;;;;;;11.04;50.71777;970.2637;;;;
2019/04/20 06:25:26;;;;;;;10.3;7.2;;;;;;;11.22;49.0791;970.3726;;;;
2019/04/20 06:27:46;;;;;;;8.5;7.4;;;;;;;11.26;48.61133;970.4003;;;;
2019/04/20 06:30:11;;;;;;;8.5;7.1;;;;;;;11.31;49.08984;970.3353;;;;
2019/04/20 06:32:36;;;;;;;9.4;7.9;;;;;;;11.4;47.49609;970.3856;;;;
2019/04/20 06:35:02;;;;;;;9.3;7.6;;;;;;;11.56;48.33301;970.3784;;;;
2019/04/20 06:37:27;;;;;;;9.6;7.9;;;;;;;11.58;47.80566;970.416;;;;
2019/04/20 06:39:52;;;;;;;10.6;7.7;;;;;;;11.71;47.62305;970.4282;;;;
2019/04/20 06:42:19;;;;;;;9.2;8.2;;;;;;;11.78;46.88086;970.4009;;;;
2019/04/20 06:44:44;;;;;;;9.2;7.8;;;;;;;11.81;46.50391;970.4379;;;;
2019/04/20 06:47:09;;;;;;;8.8;7.9;;;;;;;11.83;48.0293;970.4975;;;;
2019/04/20 06:49:34;;;;;;;10.3;8.1;;;;;;;11.9;46.85938;970.5008;;;;
2019/04/20 06:52:03;;;;;;;9.4;7.6;;;;;;;11.94;47.78711;970.4899;;;;
2019/04/20 06:54:46;;;;;;;10.7;7.5;;;;;;;12.02;47.59961;970.4661;;;;
2019/04/20 06:56:49;;;;;;;9.7;7.7;;;;;;;12.08;46.46289;970.4961;;;;
2019/04/20 06:59:14;;;;;;;10.1;7.7;;;;;;;12.15;47.08301;970.552;;;;
2019/04/20 07:01:49;;;;;;;11.9;8.1;;;;;;;12.24;46.9873;970.5106;;;;
2019/04/20 07:04:14;;;;;;;10.8;7.8;;;;;;;12.37;46.2168;970.5308;;;;
2019/04/20 07:06:39;;;;;;;10.7;7.7;;;;;;;12.42;45.62012;970.5143;;;;
2019/04/20 07:09:04;;;;;;;10;7.6;;;;;;;12.57;45.84375;970.5458;;;;
2019/04/20 07:11:30;;;;;;;11.6;7.9;;;;;;;12.63;45.70117;970.5672;;;;
2019/04/20 07:13:55;;;;;;;10.1;7.8;;;;;;;12.67;45.26563;970.5772;;;;
2019/04/20 07:23:11;;;;;;;11.2;7.9;;;;;;;12.98;45.07715;970.6184;;;;
2019/04/20 07:25:36;;;;;;;12.2;8;;;;;;;13.01;45.52148;970.6381;;;;
2019/04/20 07:28:01;;;;;;;10.3;7.5;;;;;;;13.02;45.44043;970.5936;;;;
2019/04/20 07:30:29;;;;;;;8.5;7.3;;;;;;;13.1;46.31738;970.6221;;;;
2019/04/20 07:32:55;;;;;;;12;8.1;;;;;;;13.15;45.31543;970.5217;;;;
2019/04/20 07:35:20;;;;;;;9.5;7.7;;;;;;;13.25;46.7959;970.6102;;;;
2019/04/20 07:37:46;;;;;;;10.5;8;;;;;;;13.23;45.24316;970.5633;;;;
2019/04/20 07:40:12;;;;;;;10.1;7.6;;;;;;;13.36;45.38379;970.553;;;;
2019/04/20 07:42:38;;;;;;;9.6;8.1;;;;;;;13.42;44.96094;970.5881;;;;
2019/04/20 07:45:06;;;;;;;12.4;8.8;;;;;;;13.28;46.25488;970.5908;;;;
2019/04/20 07:47:52;;;;;;;9.5;7.8;;;;;;;13.36;46.34473;970.5709;;;;
2019/04/20 07:50:20;;;;;;;8.9;7.9;;;;;;;13.5;44.50586;970.6082;;;;
2019/04/20 07:53:02;;;;;;;9.4;7.7;;;;;;;13.52;46.17578;970.615;;;;
2019/04/20 07:55:27;;;;;;;9.8;7.5;;;;;;;13.62;45.17969;970.5106;;;;
2019/04/20 07:57:54;;;;;;;9.7;7.5;;;;;;;13.72;45.45605;970.4933;;;;
2019/04/20 08:00:21;;;;;;;11.7;8.1;;;;;;;13.84;45.03906;970.4928;;;;
2019/04/20 08:05:28;;;;;;;10.1;8.1;;;;;;;13.95;45.35156;970.5661;;;;
2019/04/20 08:07:41;;;;;;;10.5;7.6;;;;;;;14.01;44.72168;970.5609;;;;
2019/04/20 08:10:07;;;;;;;10.8;7.7;;;;;;;14.17;45.16602;970.5653;;;;
2019/04/20 08:12:32;;;;;;;9;7.6;;;;;;;14.25;44.18848;970.5722;;;;
2019/04/20 08:15:00;;;;;;;10.3;7.3;;;;;;;14.31;44.37988;970.6105;;;;
2019/04/20 08:17:25;;;;;;;12.5;7.8;;;;;;;14.36;44.45508;970.51;;;;
2019/04/20 08:19:51;;;;;;;10.9;8.6;;;;;;;14.47;44.56934;970.5662;;;;
2019/04/20 08:22:16;;;;;;;9.8;7.7;;;;;;;14.56;44.49902;970.4709;;;;
2019/04/20 08:24:41;;;;;;;10.1;8.1;;;;;;;14.58;44.56934;970.4567;;;;
2019/04/20 08:27:11;;;;;;;10.6;7;;;;;;;14.77;42.61328;970.4138;;;;
2019/04/20 08:29:35;;;;;;;10.4;7.4;;;;;;;14.75;42.78613;970.4553;;;;
2019/04/20 08:32:02;;;;;;;8.5;7;;;;;;;14.87;43.69238;970.3617;;;;
2019/04/20 08:34:23;;;;;;;10.6;7.5;;;;;;;14.93;43.60645;970.4303;;;;
2019/04/20 08:36:47;;;;;;;8.2;7;;;;;;;15.01;44.60254;970.4144;;;;
2019/04/20 08:39:13;;;;;;;9;7.3;;;;;;;15.13;42.96191;970.387;;;;
2019/04/20 08:41:39;;;;;;;11.5;7.8;;;;;;;15.11;43.01953;970.3845;;;;
2019/04/20 08:44:04;;;;;;;9.9;7.6;;;;;;;15.25;42.70703;970.3934;;;;
2019/04/20 08:46:30;;;;;;;11.5;7.3;;;;;;;15.34;42.12305;970.4205;;;;
2019/04/20 08:48:55;;;;;;;7.6;6.5;;;;;;;15.41;42.22168;970.3661;;;;
2019/04/20 08:51:25;;;;;;;8.8;6.5;;;;;;;15.49;41.10059;970.3155;;;;
2019/04/20 08:53:50;;;;;;;8.8;6.8;;;;;;;15.64;40.62598;970.2844;;;;
2019/04/20 08:56:21;;;;;;;9.4;6.9;;;;;;;15.7;41.50488;970.2482;;;;
2019/04/20 08:58:46;;;;;;;8;5.9;;;;;;;15.83;40.36426;970.3152;;;;
2019/04/20 09:01:12;;;;;;;6.1;5.5;;;;;;;15.86;39.98242;970.2951;;;;
2019/04/20 09:03:37;;;;;;;8.7;6.7;;;;;;;15.96;40.50391;970.3475;;;;
2019/04/20 09:06:02;;;;;;;8.1;6.7;;;;;;;16.02;39.91602;970.355;;;;
2019/04/20 09:08:43;;;;;;;9.3;6.7;;;;;;;16.11;41.32227;970.3209;;;;
2019/04/20 09:11:08;;;;;;;8.7;6.5;;;;;;;16.23;40.40137;970.3047;;;;
2019/04/20 09:13:43;;;;;;;11.9;7.3;;;;;;;16.31;40.04688;970.2803;;;;
2019/04/20 09:16:14;;;;;;;8.6;6.9;;;;;;;16.3;40.52441;970.2762;;;;
2019/04/20 09:18:53;;;;;;;9.5;7.2;;;;;;;16.3;40.18555;970.2899;;;;
2019/04/20 09:21:25;;;;;;;8.9;7.1;;;;;;;16.46;41.91504;970.2314;;;;
2019/04/20 09:24:08;;;;;;;10.2;7.5;;;;;;;16.39;39.2373;970.2112;;;;
2019/04/20 09:26:44;;;;;;;10.4;7.5;;;;;;;16.4;40.02051;970.1705;;;;
2019/04/20 09:29:12;;;;;;;11.1;7.6;;;;;;;16.64;40.0293;970.1967;;;;
2019/04/20 09:31:40;;;;;;;8.9;7;;;;;;;16.76;38.80371;970.1499;;;;
2019/04/20 09:34:21;;;;;;;9.1;7.1;;;;;;;16.85;39.00977;970.2028;;;;
2019/04/20 09:39:43;;;;;;;10;6.9;;;;;;;17.03;38.69922;970.0804;;;;
2019/04/20 09:44:30;;;;;;;10.4;7;;;;;;;17.34;37.84961;970.067;;;;
2019/04/20 09:46:56;;;;;;;11.2;7.6;;;;;;;17.42;36.83887;970.157;;;;
2019/04/20 09:49:21;;;;;;;10.4;7.5;;;;;;;17.46;37.19336;970.1086;;;;
2019/04/20 09:51:46;;;;;;;9.3;7.5;;;;;;;17.63;38.49414;970.0657;;;;
2019/04/20 09:54:12;;;;;;;8.7;6.6;;;;;;;17.64;36.07422;970.0377;;;;
2019/04/20 09:56:37;;;;;;;9.8;7.2;;;;;;;17.7;37.03809;970.0629;;;;
2019/04/20 09:59:02;;;;;;;8;6.5;;;;;;;17.71;36.03223;970.0183;;;;
2019/04/20 10:01:27;;;;;;;8.1;6.9;;;;;;;17.87;37.06445;970.0637;;;;
2019/04/20 10:03:52;;;;;;;8.9;7.3;;;;;;;18.03;35.80176;970.0433;;;;
2019/04/20 10:06:17;;;;;;;12.3;6.8;;;;;;;18.03;36.69141;970.0128;;;;
2019/04/20 10:08:43;;;;;;;10.6;7.6;;;;;;;18.2;37.57227;970.0264;;;;
2019/04/20 10:11:09;;;;;;;9.6;6.7;;;;;;;18.41;36.85156;969.9475;;;;
2019/04/20 10:13:34;;;;;;;11.5;6.6;;;;;;;18.58;36.74902;969.9395;;;;
2019/04/20 10:15:59;;;;;;;9;5.9;;;;;;;18.52;34.40039;969.892;;;;
2019/04/20 10:18:24;;;;;;;8.5;6.3;;;;;;;18.64;34.83105;969.8894;;;;
2019/04/20 10:20:50;;;;;;;7.2;5.6;;;;;;;18.67;33.74316;969.9299;;;;
2019/04/20 10:23:16;;;;;;;8.9;6.3;;;;;;;18.62;34.39648;969.9172;;;;
2019/04/20 10:25:41;;;;;;;11.7;6.6;;;;;;;18.82;33.98926;969.901;;;;
2019/04/20 10:28:10;;;;;;;7.2;5.9;;;;;;;18.93;33.68066;969.8591;;;;
2019/04/20 10:30:35;;;;;;;7.2;6.2;;;;;;;18.9;33.39746;969.8044;;;;
2019/04/20 10:33:00;;;;;;;10.9;6;;;;;;;19.09;34.23242;969.8779;;;;
2019/04/20 10:35:25;;;;;;;7.7;5.9;;;;;;;19.42;32.32129;969.8958;;;;
2019/04/20 10:37:55;;;;;;;8.5;5.7;;;;;;;19.54;33.71582;969.7768;;;;
2019/04/20 10:40:16;;;;;;;8.2;5.6;;;;;;;19.7;33.62305;969.8564;;;;
2019/04/20 10:42:41;;;;;;;7;5.4;;;;;;;19.91;34.10938;969.829;;;;
2019/04/20 10:45:06;;;;;;;6.5;4.8;;;;;;;20.14;30.85645;969.8445;;;;
2019/04/20 10:47:31;;;;;;;7;4.8;;;;;;;20.45;31.16016;969.7352;;;;
2019/04/20 10:49:56;;;;;;;9;5.4;;;;;;;20.94;30.9834;969.799;;;;
2019/04/20 10:52:21;;;;;;;6.7;5.6;;;;;;;21.68;28.94531;969.7411;;;;
2019/04/20 10:54:46;;;;;;;7;5.9;;;;;;;22.45;27.69434;969.7574;;;;
2019/04/20 10:57:12;;;;;;;6.1;4.9;;;;;;;23.91;24.0957;969.7381;;;;
2019/04/20 10:59:37;;;;;;;6.4;5.3;;;;;;;25.5;23.07422;969.8049;;;;
2019/04/20 11:02:02;;;;;;;7.9;5.3;;;;;;;26.93;22.00098;969.7288;;;;
2019/04/20 11:04:27;;;;;;;7.4;5.7;;;;;;;27.44;21.42871;969.7645;;;;
2019/04/20 11:06:52;;;;;;;8.2;6.1;;;;;;;28.71;20.3252;969.785;;;;
2019/04/20 11:09:17;;;;;;;8.2;4.9;;;;;;;29.82;18.16406;969.7094;;;;
2019/04/20 11:11:42;;;;;;;8.9;5;;;;;;;29.73;18.34082;969.7327;;;;
2019/04/20 11:14:07;;;;;;;7;4.3;;;;;;;29.78;18.04199;969.7165;;;;
2019/04/20 11:16:36;;;;;;;9;5.2;;;;;;;30.66;15.45117;969.7531;;;;
2019/04/20 11:19:05;;;;;;;4.6;3.1;;;;;;;30.97;15.59473;969.764;;;;
2019/04/20 11:21:50;;;;;;;3.6;2.9;;;;;;;31.04;14.72949;969.6535;;;;
2019/04/20 11:24:16;;;;;;;5.3;3.3;;;;;;;31.2;15;969.6013;;;;
2019/04/20 11:26:48;;;;;;;4.9;4;;;;;;;31.73;14.5957;969.5396;;;;
2019/04/20 11:29:14;;;;;;;7.6;4.9;;;;;;;31.49;15.35938;969.4666;;;;
2019/04/20 11:31:39;;;;;;;6.8;4.5;;;;;;;31.45;16.05762;969.5578;;;;
2019/04/20 11:34:17;;;;;;;6.1;4.2;;;;;;;31.7;15.76465;969.4554;;;;
2019/04/20 11:36:42;;;;;;;6;4.2;;;;;;;32.52;14.2334;969.5172;;;;
2019/04/20 11:39:10;;;;;;;5.8;4.3;;;;;;;32.79;14.15723;969.5369;;;;
2019/04/20 11:41:33;;;;;;;6.1;4.3;;;;;;;33.09;13.47656;969.4069;;;;
2019/04/20 11:44:16;;;;;;;8.1;4.4;;;;;;;33.66;15.08105;969.5156;;;;
2019/04/20 11:47:03;;;;;;;6.7;4.4;;;;;;;33.19;15.5752;969.5106;;;;
2019/04/20 11:49:28;;;;;;;7.2;5.2;;;;;;;33.19;14.06055;969.4023;;;;
2019/04/20 11:52:06;;;;;;;6.1;3.7;;;;;;;33.57;12.09668;969.4403;;;;
2019/04/20 11:54:50;;;;;;;3.5;3.2;;;;;;;33.36;12.95117;969.4246;;;;
2019/04/20 11:57:15;;;;;;;7.6;4.5;;;;;;;33.37;12.16406;969.4678;;;;
2019/04/20 11:59:52;;;;;;;5.7;4.6;;;;;;;33.65;12.64453;969.3353;;;;
2019/04/20 12:02:43;;;;;;;6.4;4.5;;;;;;;33.7;12.64551;969.3859;;;;
2019/04/20 12:05:06;;;;;;;4.9;3.9;;;;;;;33.59;12.02441;969.3496;;;;
2019/04/20 12:07:29;;;;;;;6.4;4.7;;;;;;;33.3;12.97363;969.3536;;;;
2019/04/20 12:10:18;;;;;;;7.7;4.6;;;;;;;33.06;12.74902;969.3024;;;;
2019/04/20 12:12:44;;;;;;;9.7;4.1;;;;;;;32.76;13.73242;969.2445;;;;
2019/04/20 12:15:09;;;;;;;6.3;4.1;;;;;;;32.97;15.49414;969.2051;;;;
2019/04/20 12:17:35;;;;;;;5.6;4.6;;;;;;;32.37;13.06836;969.2717;;;;
2019/04/20 12:20:00;;;;;;;6.5;4.5;;;;;;;31.77;13.89648;969.2503;;;;
2019/04/20 12:22:25;;;;;;;5.4;4.2;;;;;;;32;13.29883;969.25;;;;
2019/04/20 12:24:50;;;;;;;6.1;4.2;;;;;;;32.13;12.57813;969.1306;;;;
2019/04/20 12:27:15;;;;;;;4.5;3.6;;;;;;;32.52;15.60059;969.1483;;;;
2019/04/20 12:29:40;;;;;;;5.1;4.3;;;;;;;32.25;14.66016;969.0617;;;;
2019/04/20 12:32:05;;;;;;;7.3;3.9;;;;;;;32.19;13.15918;969.1028;;;;
2019/04/20 12:34:31;;;;;;;6.5;3.9;;;;;;;31.91;12.46289;969.1339;;;;
2019/04/20 12:36:56;;;;;;;5.6;3.8;;;;;;;31.62;12.51563;969.0455;;;;
2019/04/20 12:39:21;;;;;;;4.5;3.8;;;;;;;31.85;12.64258;968.9639;;;;
2019/04/20 12:41:47;;;;;;;4.3;3.6;;;;;;;31.3;14.54492;969.0869;;;;
2019/04/20 12:44:12;;;;;;;5.5;4;;;;;;;31.15;14.09375;969.0343;;;;
2019/04/20 12:46:37;;;;;;;8;4.6;;;;;;;30.94;13.18359;969.0588;;;;
2019/04/20 12:49:02;;;;;;;6;4.4;;;;;;;31.42;14.57324;969.0461;;;;
2019/04/20 12:51:27;;;;;;;7.3;4.3;;;;;;;31.48;14.4541;968.9648;;;;
2019/04/20 12:54:04;;;;;;;5;3.9;;;;;;;31.7;13.47168;968.8793;;;;
2019/04/20 12:56:33;;;;;;;7.7;5;;;;;;;31.04;13.51172;968.9486;;;;
2019/04/20 12:58:58;;;;;;;8.2;4.9;;;;;;;31.1;12.59766;968.916;;;;
2019/04/20 13:01:27;;;;;;;7.5;4.4;;;;;;;30.58;14.84668;969.0055;;;;
2019/04/20 13:03:52;;;;;;;5.3;4.6;;;;;;;30.53;16.54297;968.937;;;;
2019/04/20 13:06:22;;;;;;;6.5;4.8;;;;;;;31.05;15.44141;968.9194;;;;
2019/04/20 13:08:48;;;;;;;6.8;4.8;;;;;;;30.85;13.80762;968.8616;;;;
2019/04/20 13:11:21;;;;;;;8.9;5.2;;;;;;;30.58;13.72754;968.8978;;;;
2019/04/20 13:13:48;;;;;;;5.5;4.8;;;;;;;30.8;13.48145;968.8686;;;;
2019/04/20 13:16:10;;;;;;;8.2;5;;;;;;;29.96;13.40723;968.8597;;;;
2019/04/20 13:18:32;;;;;;;6.4;4.6;;;;;;;30.07;13.13477;968.8691;;;;
2019/04/20 13:20:54;;;;;;;5.4;4.4;;;;;;;30.61;14.24609;968.8269;;;;
2019/04/20 13:23:19;;;;;;;9.4;4.9;;;;;;;29.28;14.87695;968.7732;;;;
2019/04/20 13:25:44;;;;;;;9;5.2;;;;;;;29.77;15.40918;968.799;;;;
2019/04/20 13:28:09;;;;;;;6.4;5.4;;;;;;;29.77;13.87109;968.7224;;;;
2019/04/20 13:30:34;;;;;;;7.7;5.6;;;;;;;29.93;14.34473;968.7433;;;;
2019/04/20 13:32:59;;;;;;;7.6;5.3;;;;;;;29.85;14.75098;968.7549;;;;
2019/04/20 13:35:24;;;;;;;6.9;5.2;;;;;;;30.23;16.3877;968.652;;;;
2019/04/20 13:37:49;;;;;;;9.7;5.1;;;;;;;29.91;15.05371;968.6514;;;;
2019/04/20 13:40:14;;;;;;;6.9;5;;;;;;;29.73;14.02539;968.6526;;;;
2019/04/20 13:42:40;;;;;;;8.1;4.9;;;;;;;29.5;14.51074;968.6467;;;;
2019/04/20 13:45:05;;;;;;;8.1;5;;;;;;;29.02;15.45605;968.5437;;;;
2019/04/20 13:47:30;;;;;;;7.2;5;;;;;;;29.09;15.91406;968.5829;;;;
2019/04/20 13:49:55;;;;;;;6.3;5.1;;;;;;;28.65;15.50293;968.4997;;;;
2019/04/20 13:52:20;;;;;;;7.8;4.5;;;;;;;29.02;16.06738;968.4994;;;;
2019/04/20 13:54:45;;;;;;;6.6;4.6;;;;;;;28.96;15.51367;968.4675;;;;
2019/04/20 13:57:11;;;;;;;7.7;5;;;;;;;29.01;15.73145;968.4274;;;;
2019/04/20 13:59:42;;;;;;;6.1;4.7;;;;;;;29.19;14.65723;968.5089;;;;
2019/04/20 14:02:13;;;;;;;6.7;5;;;;;;;28.73;15.24219;968.4067;;;;
2019/04/20 14:04:31;;;;;;;8.1;4.7;;;;;;;28.65;16.5459;968.3386;;;;
2019/04/20 14:06:56;;;;;;;9.1;4.6;;;;;;;28.83;14.32129;968.4012;;;;
2019/04/20 14:09:21;;;;;;;5.9;4.7;;;;;;;28.43;15.33984;968.3178;;;;
2019/04/20 14:11:46;;;;;;;6;4.5;;;;;;;28.73;14.78613;968.259;;;;
2019/04/20 14:14:11;;;;;;;7.6;4.1;;;;;;;28.97;15.8623;968.3002;;;;
2019/04/20 14:16:36;;;;;;;6.7;4.7;;;;;;;28.55;15.53516;968.2233;;;;
2019/04/20 14:19:01;;;;;;;7.8;4.3;;;;;;;28.42;15.15918;968.2342;;;;
2019/04/20 14:21:26;;;;;;;5.6;4.1;;;;;;;28.53;12.23828;968.1555;;;;
2019/04/20 14:23:51;;;;;;;8.7;4.1;;;;;;;28.47;12.33301;968.1096;;;;
2019/04/20 14:26:17;;;;;;;5.9;3.8;;;;;;;28.06;13.04004;968.166;;;;
2019/04/20 14:28:42;;;;;;;5.4;3.8;;;;;;;27.75;13.23438;968.1566;;;;
2019/04/20 14:31:07;;;;;;;4.3;3.4;;;;;;;27.65;14.05664;968.0731;;;;
2019/04/20 14:33:32;;;;;;;5.8;3.8;;;;;;;27.63;14.05664;968.0711;;;;
2019/04/20 14:36:03;;;;;;;6.5;3.5;;;;;;;27.43;12.87793;968.0513;;;;
2019/04/20 14:38:28;;;;;;;6.5;3.9;;;;;;;26.87;13.72168;967.9822;;;;
2019/04/20 14:40:53;;;;;;;5.9;4;;;;;;;26.04;14.34082;968.0181;;;;
2019/04/20 14:43:27;;;;;;;7.4;3.8;;;;;;;25.88;15.22852;967.9414;;;;
2019/04/20 14:45:53;;;;;;;8.8;4;;;;;;;25.39;15.39063;968.0168;;;;
2019/04/20 14:48:18;;;;;;;4.8;4;;;;;;;25.48;15.32227;967.9509;;;;
2019/04/20 14:50:48;;;;;;;6.7;3.8;;;;;;;24.85;15.16992;967.8879;;;;
2019/04/20 14:53:13;;;;;;;7.9;3.9;;;;;;;24.9;13.99414;967.8553;;;;
2019/04/20 14:55:38;;;;;;;5.4;3.9;;;;;;;25.26;17.40918;967.865;;;;
2019/04/20 14:58:07;;;;;;;7.2;4.1;;;;;;;25.27;16.0293;967.9481;;;;